Time;durP1;ratioP1;P1;durP2;ratioP2;P2;SDS_P1;SDS_P2;PMS_P1;PMS_P2;Temp;Humidity;BMP_temperature;BMP_pressure;BME280_temperature;BME280_humidity;BME280_pressure;Samples;Min_cycle;Max_cycle;Signal;HPM_P1;HPM_P2
2023/02/21 02:16:00;;;;;;;68.63;35.55;;;;;;;;;;5036440;28;20246;-66
2023/02/21 02:18:45;;;;;;;70.33;36.40;;;;;;;;;;5036630;28;20202;-66
2023/02/21 02:21:30;;;;;;;61.85;33.10;;;;;;;;;;5036577;28;20484;-66
2023/02/21 02:24:09;;;;;;;63.47;29.60;;;;;;;;;;5036225;28;20192;-69
2023/02/21 02:26:54;;;;;;;66.77;34.50;;;;;;;;;;5036585;28;20440;-68
2023/02/21 02:29:37;;;;;;;71.23;36.47;;;;;;;;;;5024332;28;20837;-68
2023/02/21 02:32:20;;;;;;;65.40;37.50;;;;;;;;;;5036927;28;20423;-68
2023/02/21 02:34:55;;;;;;;55.63;28.73;;;;;;;;;;5036132;28;20776;-68
2023/02/21 02:37:25;;;;;;;66.57;34.30;;;;;;;;;;5036077;28;20419;-68
2023/02/21 02:39:56;;;;;;;65.47;35.77;;;;;;;;;;5035885;28;20448;-66
2023/02/21 02:42:27;;;;;;;73.23;36.80;;;;;;;;;;5036233;28;20475;-66
2023/02/21 02:44:57;;;;;;;60.33;32.40;;;;;;;;;;5036382;28;20764;-66
2023/02/21 02:47:26;;;;;;;61.95;34.55;;;;;;;;;;5035941;28;20184;-67
2023/02/21 02:49:55;;;;;;;69.83;34.43;;;;;;;;;;5036119;28;20199;-66
2023/02/21 02:52:22;;;;;;;62.17;34.67;;;;;;;;;;5035076;28;20440;-66
2023/02/21 02:54:58;;;;;;;59.23;33.87;;;;;;;;;;5035586;28;20439;-66
2023/02/21 02:57:25;;;;;;;62.30;33.47;;;;;;;;;;5035712;28;20423;-66
2023/02/21 02:59:52;;;;;;;67.53;33.73;;;;;;;;;;5070148;28;20931;-66
2023/02/21 03:02:29;;;;;;;69.30;36.53;;;;;;;;;;5075711;28;20483;-66
2023/02/21 03:05:07;;;;;;;71.13;35.90;;;;;;;;;;5075853;28;20460;-66
2023/02/21 03:07:38;;;;;;;71.27;35.47;;;;;;;;;;5075730;28;20185;-67
2023/02/21 03:10:12;;;;;;;66.45;35.47;;;;;;;;;;5075948;28;20447;-68
2023/02/21 03:12:45;;;;;;;76.37;40.13;;;;;;;;;;5075858;28;20197;-68
2023/02/21 03:15:16;;;;;;;74.57;35.70;;;;;;;;;;5075202;28;20425;-68
2023/02/21 03:17:44;;;;;;;69.67;36.00;;;;;;;;;;5075371;28;20179;-68
2023/02/21 03:20:14;;;;;;;62.67;33.50;;;;;;;;;;5075144;28;20441;-68
2023/02/21 03:22:43;;;;;;;68.07;33.20;;;;;;;;;;5075169;28;20296;-68
2023/02/21 03:25:11;;;;;;;74.68;39.05;;;;;;;;;;5075658;28;20467;-68
2023/02/21 03:27:39;;;;;;;73.27;37.27;;;;;;;;;;5075652;28;20201;-68
2023/02/21 03:30:08;;;;;;;71.83;34.57;;;;;;;;;;5074850;28;20448;-68
2023/02/21 03:35:02;;;;;;;78.22;37.50;;;;;;;;;;5075320;28;20686;-68
2023/02/21 03:37:32;;;;;;;79.00;39.80;;;;;;;;;;5075171;28;20198;-68
2023/02/21 03:40:00;;;;;;;78.80;38.90;;;;;;;;;;5074948;28;20475;-64
2023/02/21 03:42:27;;;;;;;71.13;36.80;;;;;;;;;;5074969;28;20475;-67
2023/02/21 03:44:54;;;;;;;63.57;32.33;;;;;;;;;;5075748;28;20451;-68
2023/02/21 03:47:22;;;;;;;80.53;37.87;;;;;;;;;;5074910;28;20432;-66
2023/02/21 03:49:49;;;;;;;71.18;37.20;;;;;;;;;;5074882;28;20424;-66
2023/02/21 03:52:16;;;;;;;82.32;38.03;;;;;;;;;;5074743;28;20186;-67
2023/02/21 03:54:45;;;;;;;78.38;41.17;;;;;;;;;;5074822;28;20212;-68
2023/02/21 03:57:12;;;;;;;76.38;37.47;;;;;;;;;;5074917;28;20205;-68
2023/02/21 03:59:39;;;;;;;77.00;35.93;;;;;;;;;;5075176;28;20195;-68
2023/02/21 04:02:07;;;;;;;61.67;32.83;;;;;;;;;;5074474;28;20433;-68
2023/02/21 04:04:34;;;;;;;71.57;31.08;;;;;;;;;;5074320;28;20222;-68
2023/02/21 04:07:01;;;;;;;70.87;35.73;;;;;;;;;;5074666;28;20182;-68
2023/02/21 04:09:29;;;;;;;87.17;42.23;;;;;;;;;;5074539;28;20591;-66
2023/02/21 04:11:57;;;;;;;71.40;36.42;;;;;;;;;;5074309;28;21017;-67
2023/02/21 04:14:24;;;;;;;75.63;39.63;;;;;;;;;;5074407;28;20196;-68
2023/02/21 04:16:52;;;;;;;70.50;39.20;;;;;;;;;;5074200;28;20189;-67
2023/02/21 04:19:19;;;;;;;81.90;40.60;;;;;;;;;;5074005;28;20439;-67
2023/02/21 04:21:46;;;;;;;76.60;38.53;;;;;;;;;;5074186;28;20787;-67
2023/02/21 04:24:13;;;;;;;73.90;35.20;;;;;;;;;;5074607;28;20482;-67
2023/02/21 04:26:40;;;;;;;82.23;38.63;;;;;;;;;;5073686;28;20443;-67
2023/02/21 04:29:09;;;;;;;87.88;38.63;;;;;;;;;;5073847;28;20929;-67
2023/02/21 04:31:36;;;;;;;78.75;38.47;;;;;;;;;;5074196;28;20205;-67
2023/02/21 04:34:04;;;;;;;78.13;38.10;;;;;;;;;;5073595;28;20193;-68
2023/02/21 04:36:31;;;;;;;83.63;39.67;;;;;;;;;;5073629;28;20930;-67
2023/02/21 04:38:58;;;;;;;95.97;40.38;;;;;;;;;;5074293;28;20186;-66
2023/02/21 04:41:25;;;;;;;80.20;38.03;;;;;;;;;;5073781;28;20194;-66
2023/02/21 04:43:52;;;;;;;97.13;42.25;;;;;;;;;;5073523;28;20479;-66
2023/02/21 04:46:21;;;;;;;88.13;38.93;;;;;;;;;;5073510;28;20191;-66
2023/02/21 04:48:49;;;;;;;84.43;39.63;;;;;;;;;;5074020;28;20460;-66
2023/02/21 04:51:17;;;;;;;89.20;40.60;;;;;;;;;;5073409;28;20937;-66
2023/02/21 04:53:45;;;;;;;92.90;40.37;;;;;;;;;;5056886;28;20442;-66
2023/02/21 04:56:12;;;;;;;89.97;41.67;;;;;;;;;;5052642;28;20907;-66
2023/02/21 04:58:39;;;;;;;95.95;40.55;;;;;;;;;;5054035;28;20437;-65
2023/02/21 05:01:06;;;;;;;92.93;38.87;;;;;;;;;;5053243;28;20195;-66
2023/02/21 05:03:35;;;;;;;86.72;36.55;;;;;;;;;;5053159;28;20954;-66
2023/02/21 05:06:02;;;;;;;99.47;42.37;;;;;;;;;;5053867;28;20233;-66
2023/02/21 05:08:29;;;;;;;96.63;42.17;;;;;;;;;;5053249;28;20433;-66
2023/02/21 05:10:57;;;;;;;91.57;42.50;;;;;;;;;;5053945;28;20429;-66
2023/02/21 05:13:24;;;;;;;89.40;38.20;;;;;;;;;;5052987;28;20437;-72
2023/02/21 05:15:51;;;;;;;93.87;39.70;;;;;;;;;;5052893;28;20437;-75
2023/02/21 05:18:21;;;;;;;90.20;37.33;;;;;;;;;;5053197;28;20449;-66
2023/02/21 05:20:50;;;;;;;95.57;38.77;;;;;;;;;;5054269;28;20497;-66
2023/02/21 05:23:17;;;;;;;96.63;36.53;;;;;;;;;;5053195;28;20496;-66
2023/02/21 05:25:45;;;;;;;89.97;36.27;;;;;;;;;;5053354;28;20440;-66
2023/02/21 05:28:12;;;;;;;78.78;36.00;;;;;;;;;;5053211;28;20445;-67
2023/02/21 05:30:39;;;;;;;89.77;34.53;;;;;;;;;;5053274;28;20374;-66
2023/02/21 05:33:07;;;;;;;86.65;36.15;;;;;;;;;;5053270;28;20429;-66
2023/02/21 05:35:34;;;;;;;95.43;38.63;;;;;;;;;;5053242;28;20191;-66
2023/02/21 05:38:02;;;;;;;87.13;39.00;;;;;;;;;;5053156;28;20429;-66
2023/02/21 05:40:29;;;;;;;97.93;36.17;;;;;;;;;;5052735;28;20200;-66
2023/02/21 05:42:57;;;;;;;88.73;37.03;;;;;;;;;;5052551;28;20469;-66
2023/02/21 05:45:24;;;;;;;93.50;39.53;;;;;;;;;;5052730;28;20771;-66
2023/02/21 05:47:55;;;;;;;85.67;37.23;;;;;;;;;;5052595;28;20928;-66
2023/02/21 05:50:22;;;;;;;93.53;38.27;;;;;;;;;;5052952;28;20421;-66
2023/02/21 05:52:49;;;;;;;92.20;38.03;;;;;;;;;;5052763;28;20434;-66
2023/02/21 05:55:18;;;;;;;95.07;38.97;;;;;;;;;;5052984;28;20430;-66
2023/02/21 05:57:45;;;;;;;88.27;36.43;;;;;;;;;;5052513;28;20899;-66
2023/02/21 06:00:16;;;;;;;88.75;36.65;;;;;;;;;;5052862;28;20433;-67
2023/02/21 06:02:43;;;;;;;82.72;35.15;;;;;;;;;;5050323;28;20179;-67
2023/02/21 06:05:10;;;;;;;94.30;38.53;;;;;;;;;;5050625;28;20676;-67
2023/02/21 06:07:37;;;;;;;84.97;37.90;;;;;;;;;;5051762;28;20449;-68
2023/02/21 06:10:05;;;;;;;78.30;34.43;;;;;;;;;;5052793;28;20429;-66
2023/02/21 06:12:34;;;;;;;88.40;36.67;;;;;;;;;;5052540;28;20438;-67
2023/02/21 06:15:06;;;;;;;85.67;37.90;;;;;;;;;;5052509;28;20445;-66
2023/02/21 06:17:33;;;;;;;89.38;39.78;;;;;;;;;;5052472;28;20417;-66
2023/02/21 06:20:00;;;;;;;98.18;39.15;;;;;;;;;;5052824;28;20549;-66
2023/02/21 06:22:27;;;;;;;84.17;36.37;;;;;;;;;;5053177;28;20194;-66
2023/02/21 06:24:54;;;;;;;93.05;34.60;;;;;;;;;;5052436;28;20473;-66
2023/02/21 06:27:22;;;;;;;92.88;33.80;;;;;;;;;;5053054;28;20194;-66
2023/02/21 06:29:50;;;;;;;76.07;33.57;;;;;;;;;;5056303;28;20191;-66
2023/02/21 06:32:17;;;;;;;84.47;33.70;;;;;;;;;;5056259;28;20433;-65
2023/02/21 06:34:44;;;;;;;78.10;34.85;;;;;;;;;;5055738;28;20210;-66
2023/02/21 06:37:12;;;;;;;83.30;34.63;;;;;;;;;;5055957;28;20194;-66
2023/02/21 06:39:39;;;;;;;80.53;33.87;;;;;;;;;;5056019;28;20445;-66
2023/02/21 06:42:06;;;;;;;78.00;34.15;;;;;;;;;;5055794;28;20444;-66
2023/02/21 06:44:33;;;;;;;85.27;34.87;;;;;;;;;;5055612;28;20211;-66
2023/02/21 06:47:02;;;;;;;79.60;35.47;;;;;;;;;;5055958;28;20444;-66
2023/02/21 06:49:29;;;;;;;84.07;35.00;;;;;;;;;;5055914;28;20434;-66
2023/02/21 06:51:56;;;;;;;74.30;32.73;;;;;;;;;;5056594;28;20433;-67
2023/02/21 06:54:24;;;;;;;72.53;33.13;;;;;;;;;;5055893;28;20444;-67
2023/02/21 06:56:51;;;;;;;84.63;33.60;;;;;;;;;;5055521;28;20706;-67
2023/02/21 06:59:18;;;;;;;72.43;33.80;;;;;;;;;;5055775;28;20444;-67
2023/02/21 07:01:45;;;;;;;74.20;31.90;;;;;;;;;;5055732;28;20444;-67
2023/02/21 07:04:14;;;;;;;62.83;31.53;;;;;;;;;;5054992;28;20497;-67
2023/02/21 07:06:41;;;;;;;81.83;32.50;;;;;;;;;;5055761;28;20425;-67
2023/02/21 07:09:08;;;;;;;75.37;30.80;;;;;;;;;;5055403;28;20437;-67
2023/02/21 07:11:36;;;;;;;72.40;32.22;;;;;;;;;;5055265;28;20437;-67
2023/02/21 07:14:03;;;;;;;63.90;30.80;;;;;;;;;;5055111;28;20641;-66
2023/02/21 07:16:30;;;;;;;74.75;30.65;;;;;;;;;;5055176;28;20435;-68
2023/02/21 07:18:57;;;;;;;69.22;34.30;;;;;;;;;;5055021;28;20191;-66
2023/02/21 07:21:27;;;;;;;79.73;35.20;;;;;;;;;;5055327;28;20194;-67
2023/02/21 07:23:54;;;;;;;72.97;30.83;;;;;;;;;;5055250;28;20821;-67
2023/02/21 07:26:21;;;;;;;64.45;31.23;;;;;;;;;;5055316;28;20921;-67
2023/02/21 07:28:48;;;;;;;74.85;33.72;;;;;;;;;;5054882;28;20191;-67
2023/02/21 07:31:16;;;;;;;58.53;28.07;;;;;;;;;;5055265;28;20191;-68
2023/02/21 07:33:43;;;;;;;71.43;31.40;;;;;;;;;;5054838;28;20499;-68
2023/02/21 07:36:11;;;;;;;75.33;34.37;;;;;;;;;;5055216;28;20463;-67
2023/02/21 07:38:39;;;;;;;87.00;34.27;;;;;;;;;;5054632;28;20441;-68
2023/02/21 07:41:06;;;;;;;94.40;37.07;;;;;;;;;;5055287;28;20442;-67
2023/02/21 07:43:34;;;;;;;95.20;35.03;;;;;;;;;;5054918;28;20434;-67
2023/02/21 07:46:01;;;;;;;95.82;36.33;;;;;;;;;;5055140;28;20201;-67
2023/02/21 07:48:28;;;;;;;94.47;35.45;;;;;;;;;;5054924;28;20547;-68
2023/02/21 07:50:55;;;;;;;83.72;34.60;;;;;;;;;;5054889;28;20186;-68
2023/02/21 07:53:23;;;;;;;97.60;37.08;;;;;;;;;;5054880;28;20605;-67
2023/02/21 07:55:51;;;;;;;86.95;36.45;;;;;;;;;;5054749;28;20187;-67
2023/02/21 07:58:18;;;;;;;82.68;36.03;;;;;;;;;;5054760;28;20191;-67
2023/02/21 08:00:46;;;;;;;96.33;36.93;;;;;;;;;;5054598;28;20187;-67
2023/02/21 08:03:13;;;;;;;120.28;42.20;;;;;;;;;;5054387;28;20442;-67
2023/02/21 08:05:41;;;;;;;92.63;37.10;;;;;;;;;;5054755;28;20226;-67
2023/02/21 08:08:08;;;;;;;107.15;37.67;;;;;;;;;;5054227;28;20213;-67
2023/02/21 08:10:36;;;;;;;93.50;36.60;;;;;;;;;;5054096;28;20640;-67
2023/02/21 08:13:05;;;;;;;110.35;39.80;;;;;;;;;;5054377;28;20439;-67
2023/02/21 08:15:32;;;;;;;89.60;34.77;;;;;;;;;;5054310;28;20195;-67
2023/02/21 08:17:59;;;;;;;98.75;37.92;;;;;;;;;;5054031;28;20532;-67
2023/02/21 08:20:26;;;;;;;103.70;37.50;;;;;;;;;;5054341;28;20202;-67
2023/02/21 08:22:53;;;;;;;105.17;40.77;;;;;;;;;;5054646;28;20437;-67
2023/02/21 08:25:21;;;;;;;81.13;37.20;;;;;;;;;;5053920;28;20469;-67
2023/02/21 08:27:52;;;;;;;104.93;39.05;;;;;;;;;;5053864;28;20437;-67
2023/02/21 08:30:21;;;;;;;100.57;37.40;;;;;;;;;;5053821;28;20179;-67
2023/02/21 08:32:50;;;;;;;85.10;34.53;;;;;;;;;;5053865;28;20910;-67
2023/02/21 08:35:18;;;;;;;85.15;37.08;;;;;;;;;;5053856;28;20198;-67
2023/02/21 08:37:45;;;;;;;88.10;36.87;;;;;;;;;;5053997;28;20209;-67
2023/02/21 08:40:13;;;;;;;99.15;37.53;;;;;;;;;;5054101;28;20441;-67
2023/02/21 08:42:41;;;;;;;93.23;34.97;;;;;;;;;;5053979;28;20194;-67
2023/02/21 08:45:09;;;;;;;93.70;36.10;;;;;;;;;;5053724;28;20480;-67
2023/02/21 08:47:38;;;;;;;91.40;35.25;;;;;;;;;;5053898;28;20437;-67
2023/02/21 08:50:05;;;;;;;101.47;40.00;;;;;;;;;;5053484;28;20192;-67
2023/02/21 08:52:33;;;;;;;88.53;35.73;;;;;;;;;;5053387;28;20441;-67
2023/02/21 08:55:00;;;;;;;89.30;34.93;;;;;;;;;;5053984;28;20468;-67
2023/02/21 08:57:27;;;;;;;92.60;36.50;;;;;;;;;;5053667;28;20520;-67
2023/02/21 08:59:54;;;;;;;98.27;35.70;;;;;;;;;;5053542;28;20445;-67
2023/02/21 09:02:23;;;;;;;96.73;33.10;;;;;;;;;;5052927;28;20786;-67
2023/02/21 09:04:52;;;;;;;100.63;36.37;;;;;;;;;;5053134;28;20486;-67
2023/02/21 09:07:21;;;;;;;95.47;37.47;;;;;;;;;;5053565;28;20755;-67
2023/02/21 09:09:48;;;;;;;94.75;35.67;;;;;;;;;;5053415;28;20442;-67
2023/02/21 09:12:15;;;;;;;94.57;36.92;;;;;;;;;;5053064;28;20202;-67
2023/02/21 09:14:43;;;;;;;107.40;37.47;;;;;;;;;;5053614;28;20205;-67
2023/02/21 09:17:11;;;;;;;94.90;34.87;;;;;;;;;;5053986;28;20846;-67
2023/02/21 09:19:39;;;;;;;121.03;41.60;;;;;;;;;;5053250;28;20440;-67
2023/02/21 09:22:08;;;;;;;115.80;39.77;;;;;;;;;;5053528;28;20437;-67
2023/02/21 09:24:36;;;;;;;100.40;36.50;;;;;;;;;;5053406;28;20471;-68
2023/02/21 09:27:03;;;;;;;99.00;35.25;;;;;;;;;;5052843;28;20937;-67
2023/02/21 09:29:30;;;;;;;89.65;32.70;;;;;;;;;;5053278;28;20191;-67
2023/02/21 09:31:58;;;;;;;97.28;34.83;;;;;;;;;;5052924;28;20191;-67
2023/02/21 09:34:25;;;;;;;80.20;34.08;;;;;;;;;;5052980;28;20209;-67
2023/02/21 09:36:53;;;;;;;91.50;36.27;;;;;;;;;;5053149;28;20655;-67
2023/02/21 09:39:22;;;;;;;103.20;37.20;;;;;;;;;;5052937;28;20491;-67
2023/02/21 09:41:50;;;;;;;83.35;35.10;;;;;;;;;;5053103;28;20427;-67
2023/02/21 09:44:19;;;;;;;93.67;35.03;;;;;;;;;;5053209;28;20211;-67
2023/02/21 09:46:48;;;;;;;88.83;34.50;;;;;;;;;;5053082;28;20844;-67
2023/02/21 09:49:18;;;;;;;94.90;33.80;;;;;;;;;;5053277;28;20763;-67
2023/02/21 09:51:45;;;;;;;87.07;32.57;;;;;;;;;;5053004;28;20258;-67
2023/02/21 09:54:17;;;;;;;93.10;32.83;;;;;;;;;;5053123;28;20803;-67
2023/02/21 09:56:46;;;;;;;93.97;35.85;;;;;;;;;;5053446;28;20429;-67
2023/02/21 09:59:13;;;;;;;105.80;33.83;;;;;;;;;;5053162;28;20195;-67
2023/02/21 10:01:48;;;;;;;85.70;33.03;;;;;;;;;;5054447;28;20528;-67
2023/02/21 10:04:20;;;;;;;84.60;30.20;;;;;;;;;;5057079;28;20501;-67
2023/02/21 10:06:50;;;;;;;98.00;36.80;;;;;;;;;;5056716;28;20422;-68
2023/02/21 10:09:23;;;;;;;80.83;30.80;;;;;;;;;;5056939;28;20707;-67
2023/02/21 10:11:59;;;;;;;73.43;28.30;;;;;;;;;;5056732;28;20520;-67
2023/02/21 10:14:30;;;;;;;64.03;27.63;;;;;;;;;;5056835;28;20767;-67
2023/02/21 10:17:03;;;;;;;66.53;29.40;;;;;;;;;;5056309;28;20424;-67
2023/02/21 10:19:32;;;;;;;69.00;28.10;;;;;;;;;;5056851;28;20505;-67
2023/02/21 10:22:01;;;;;;;63.83;28.10;;;;;;;;;;5056169;28;20441;-67
2023/02/21 10:24:29;;;;;;;71.53;27.63;;;;;;;;;;5056083;28;20211;-67
2023/02/21 10:27:01;;;;;;;63.75;26.67;;;;;;;;;;5056109;28;20191;-67
2023/02/21 10:29:36;;;;;;;61.35;26.25;;;;;;;;;;5056196;28;20186;-68
2023/02/21 10:32:03;;;;;;;60.17;28.90;;;;;;;;;;5056073;28;20222;-67
2023/02/21 10:34:33;;;;;;;65.87;26.97;;;;;;;;;;5056611;28;20788;-67
2023/02/21 10:37:04;;;;;;;50.57;25.83;;;;;;;;;;5056236;28;20465;-67
2023/02/21 10:39:34;;;;;;;53.58;27.02;;;;;;;;;;5057162;28;20475;-67
2023/02/21 10:42:04;;;;;;;59.80;24.77;;;;;;;;;;5055889;28;20175;-67
2023/02/21 10:44:33;;;;;;;55.73;24.20;;;;;;;;;;5056028;28;20436;-67
2023/02/21 10:47:03;;;;;;;67.73;25.37;;;;;;;;;;5056157;28;20425;-67
2023/02/21 10:49:33;;;;;;;51.00;23.70;;;;;;;;;;5056521;28;20422;-67
2023/02/21 10:52:10;;;;;;;49.80;24.17;;;;;;;;;;5055721;28;20425;-67
2023/02/21 10:54:37;;;;;;;45.73;24.20;;;;;;;;;;5056270;28;20421;-67
2023/02/21 10:57:08;;;;;;;40.20;21.97;;;;;;;;;;5055969;28;20445;-67
2023/02/21 10:59:36;;;;;;;38.00;21.77;;;;;;;;;;5055972;28;20430;-67
2023/02/21 11:02:04;;;;;;;43.63;21.70;;;;;;;;;;5055719;28;20198;-67
2023/02/21 11:04:33;;;;;;;38.10;20.77;;;;;;;;;;5055075;28;20504;-67
2023/02/21 11:07:04;;;;;;;41.30;21.47;;;;;;;;;;5055364;28;20976;-67
2023/02/21 11:09:33;;;;;;;36.37;19.60;;;;;;;;;;5055798;28;20414;-67
2023/02/21 11:12:02;;;;;;;45.23;20.03;;;;;;;;;;5055935;28;20438;-67
2023/02/21 11:14:31;;;;;;;43.83;22.13;;;;;;;;;;5055695;28;20426;-67
2023/02/21 11:17:06;;;;;;;40.97;20.93;;;;;;;;;;5055141;28;20461;-68
2023/02/21 11:19:43;;;;;;;43.63;21.27;;;;;;;;;;5055126;28;20432;-67
2023/02/21 11:22:10;;;;;;;41.72;20.85;;;;;;;;;;5055418;28;20436;-67
2023/02/21 11:24:45;;;;;;;36.37;20.47;;;;;;;;;;5055333;28;20282;-67
2023/02/21 11:27:13;;;;;;;40.00;22.03;;;;;;;;;;5054944;28;20536;-68
2023/02/21 11:29:43;;;;;;;37.57;19.13;;;;;;;;;;5055292;28;20438;-68
2023/02/21 11:32:12;;;;;;;41.17;20.07;;;;;;;;;;5055171;28;20421;-68
2023/02/21 11:34:47;;;;;;;41.77;21.47;;;;;;;;;;5054866;28;20450;-67
2023/02/21 11:37:14;;;;;;;35.33;21.03;;;;;;;;;;5055107;28;20535;-67
2023/02/21 11:39:41;;;;;;;32.03;18.13;;;;;;;;;;5054795;28;20437;-67
2023/02/21 11:42:25;;;;;;;35.73;18.57;;;;;;;;;;5054931;28;20443;-67
2023/02/21 11:45:05;;;;;;;34.20;18.87;;;;;;;;;;5055270;28;20428;-67
2023/02/21 11:47:38;;;;;;;37.43;19.60;;;;;;;;;;5054631;28;20889;-67
2023/02/21 11:50:08;;;;;;;31.93;17.97;;;;;;;;;;5054947;28;20476;-67
2023/02/21 11:52:37;;;;;;;33.03;18.33;;;;;;;;;;5055133;28;20425;-67
2023/02/21 11:55:04;;;;;;;34.10;18.03;;;;;;;;;;5054801;28;20449;-67
2023/02/21 11:57:35;;;;;;;32.73;18.37;;;;;;;;;;5054656;28;20441;-67
2023/02/21 12:00:08;;;;;;;31.30;17.70;;;;;;;;;;5054881;28;20442;-67
2023/02/21 12:02:50;;;;;;;35.87;19.00;;;;;;;;;;5054876;28;20430;-67
2023/02/21 12:05:26;;;;;;;31.23;18.10;;;;;;;;;;5054976;28;20486;-67
2023/02/21 12:07:56;;;;;;;32.70;17.40;;;;;;;;;;5054239;28;20510;-67
2023/02/21 12:10:33;;;;;;;27.43;16.43;;;;;;;;;;5054829;28;20440;-68
2023/02/21 12:13:03;;;;;;;36.17;17.70;;;;;;;;;;5054367;28;20421;-68
2023/02/21 12:15:39;;;;;;;28.87;17.20;;;;;;;;;;5055319;28;20431;-67
2023/02/21 12:18:20;;;;;;;31.60;16.20;;;;;;;;;;5053950;28;20423;-67
2023/02/21 12:20:55;;;;;;;28.77;16.30;;;;;;;;;;5054451;28;20426;-67
2023/02/21 12:23:26;;;;;;;30.70;16.90;;;;;;;;;;5054047;28;20898;-67
2023/02/21 12:26:05;;;;;;;25.93;13.90;;;;;;;;;;5053452;28;20557;-68
2023/02/21 12:28:46;;;;;;;32.03;15.07;;;;;;;;;;5054115;28;20413;-67
2023/02/21 12:31:24;;;;;;;26.40;13.00;;;;;;;;;;5053900;28;20939;-67
2023/02/21 12:33:56;;;;;;;28.83;15.40;;;;;;;;;;5054336;28;20498;-67
2023/02/21 12:36:40;;;;;;;26.25;14.20;;;;;;;;;;5054427;28;20457;-67
2023/02/21 12:39:15;;;;;;;28.10;14.20;;;;;;;;;;5054055;28;20205;-68
2023/02/21 12:41:49;;;;;;;26.57;14.50;;;;;;;;;;5053755;28;20423;-67
2023/02/21 12:44:18;;;;;;;25.30;14.10;;;;;;;;;;5053728;28;20430;-67
2023/02/21 12:46:49;;;;;;;22.33;15.43;;;;;;;;;;5053741;28;20481;-67
2023/02/21 12:49:20;;;;;;;21.90;13.20;;;;;;;;;;5053607;28;20433;-67
2023/02/21 12:51:49;;;;;;;29.37;13.27;;;;;;;;;;5054344;28;20426;-68
2023/02/21 12:54:19;;;;;;;23.33;12.70;;;;;;;;;;5053770;28;20429;-67
2023/02/21 12:56:49;;;;;;;25.23;13.30;;;;;;;;;;5054204;28;20539;-68
2023/02/21 12:59:18;;;;;;;23.50;13.57;;;;;;;;;;5053823;28;20438;-67
2023/02/21 13:01:48;;;;;;;28.00;16.23;;;;;;;;;;5053931;28;20194;-67
2023/02/21 13:04:21;;;;;;;26.83;14.57;;;;;;;;;;5053394;28;20465;-68
2023/02/21 13:06:49;;;;;;;23.53;15.13;;;;;;;;;;5053778;28;20206;-67
2023/02/21 13:09:21;;;;;;;23.63;15.30;;;;;;;;;;5053509;28;20437;-67
2023/02/21 13:11:52;;;;;;;32.50;17.13;;;;;;;;;;5054262;28;20491;-67
2023/02/21 13:14:21;;;;;;;27.33;16.77;;;;;;;;;;5053943;28;20423;-67
2023/02/21 13:16:48;;;;;;;27.00;15.77;;;;;;;;;;5053160;28;20447;-67
2023/02/21 13:19:17;;;;;;;26.10;16.07;;;;;;;;;;5053452;28;20437;-68
2023/02/21 13:21:52;;;;;;;29.23;16.17;;;;;;;;;;5053818;28;20443;-68
2023/02/21 13:24:31;;;;;;;25.20;16.60;;;;;;;;;;5053662;28;20811;-67
2023/02/21 13:27:16;;;;;;;25.30;15.33;;;;;;;;;;5053857;28;20500;-67
2023/02/21 13:29:44;;;;;;;28.87;16.40;;;;;;;;;;5052568;28;20478;-67
2023/02/21 13:32:12;;;;;;;32.17;19.53;;;;;;;;;;5053459;28;20445;-67
2023/02/21 13:34:46;;;;;;;29.27;18.73;;;;;;;;;;5053065;28;20476;-67
2023/02/21 13:37:16;;;;;;;33.43;18.70;;;;;;;;;;5055871;28;20691;-67
2023/02/21 13:39:46;;;;;;;33.40;19.20;;;;;;;;;;5057073;28;20509;-67
2023/02/21 13:42:17;;;;;;;26.43;17.03;;;;;;;;;;5057551;28;20469;-67
2023/02/21 13:44:46;;;;;;;31.70;19.38;;;;;;;;;;5057235;28;20439;-67
2023/02/21 13:47:14;;;;;;;35.97;19.33;;;;;;;;;;5057146;28;20565;-67
2023/02/21 13:49:49;;;;;;;33.40;18.80;;;;;;;;;;5056764;28;20439;-67
2023/02/21 13:52:28;;;;;;;41.97;22.30;;;;;;;;;;5057250;28;20417;-67
2023/02/21 13:55:10;;;;;;;44.07;22.70;;;;;;;;;;5056856;28;20421;-67
2023/02/21 13:57:37;;;;;;;48.20;24.60;;;;;;;;;;5057097;28;20432;-67
2023/02/21 14:00:19;;;;;;;40.80;24.67;;;;;;;;;;5057192;28;20442;-68
2023/02/21 14:02:55;;;;;;;42.77;23.60;;;;;;;;;;5056658;28;20432;-67
2023/02/21 14:05:23;;;;;;;44.70;23.60;;;;;;;;;;5056972;28;20547;-68
2023/02/21 14:07:56;;;;;;;47.90;27.13;;;;;;;;;;5057221;28;20460;-67
2023/02/21 14:10:25;;;;;;;51.67;28.50;;;;;;;;;;5056959;28;20429;-68
2023/02/21 14:12:55;;;;;;;47.53;26.90;;;;;;;;;;5056747;28;20795;-68
2023/02/21 14:15:23;;;;;;;45.40;24.83;;;;;;;;;;5056662;28;20433;-68
2023/02/21 14:17:52;;;;;;;41.03;22.60;;;;;;;;;;5056629;28;20435;-68
2023/02/21 14:20:20;;;;;;;40.03;22.37;;;;;;;;;;5056211;28;20957;-68
2023/02/21 14:22:52;;;;;;;40.47;22.40;;;;;;;;;;5055482;28;20433;-70
2023/02/21 14:25:22;;;;;;;38.33;23.90;;;;;;;;;;5055665;28;20508;-69
2023/02/21 14:27:52;;;;;;;47.37;25.47;;;;;;;;;;5056386;28;20527;-69
2023/02/21 14:30:33;;;;;;;51.93;26.30;;;;;;;;;;5056236;28;20436;-69
2023/02/21 14:33:08;;;;;;;43.37;24.87;;;;;;;;;;5055752;28;20516;-72
2023/02/21 14:35:36;;;;;;;50.77;26.93;;;;;;;;;;5056308;28;20436;-69
2023/02/21 14:38:07;;;;;;;51.77;29.10;;;;;;;;;;5066001;28;20429;-76
2023/02/21 14:40:40;;;;;;;46.47;26.27;;;;;;;;;;5075932;28;20428;-69
2023/02/21 14:43:16;;;;;;;51.53;26.58;;;;;;;;;;5076491;28;20828;-68
2023/02/21 14:45:52;;;;;;;39.63;23.77;;;;;;;;;;5075662;28;20174;-68
2023/02/21 14:48:43;;;;;;;41.40;24.97;;;;;;;;;;5075051;28;20420;-69
2023/02/21 14:51:40;;;;;;;44.17;24.10;;;;;;;;;;4984051;28;20438;-69
2023/02/21 14:54:23;;;;;;;35.10;20.37;;;;;;;;;;5060156;28;20437;-68
2023/02/21 14:56:59;;;;;;;38.70;23.03;;;;;;;;;;5056060;28;20768;-67
2023/02/21 14:59:46;;;;;;;40.13;23.80;;;;;;;;;;5056167;28;20444;-67
2023/02/21 15:02:24;;;;;;;37.50;21.57;;;;;;;;;;5056170;28;20422;-66
2023/02/21 15:05:08;;;;;;;41.77;24.83;;;;;;;;;;5055096;28;20465;-68
2023/02/21 15:07:40;;;;;;;46.53;24.07;;;;;;;;;;5055757;28;20935;-68
2023/02/21 15:10:12;;;;;;;37.65;22.42;;;;;;;;;;5055266;28;20424;-69
2023/02/21 15:12:42;;;;;;;50.70;25.13;;;;;;;;;;5055403;28;20183;-69
2023/02/21 15:15:13;;;;;;;38.23;21.27;;;;;;;;;;5055871;28;20442;-68
2023/02/21 15:17:40;;;;;;;40.13;21.60;;;;;;;;;;5055570;28;20429;-68
2023/02/21 15:20:14;;;;;;;36.10;23.20;;;;;;;;;;5055250;28;20441;-68
2023/02/21 15:22:41;;;;;;;33.03;20.50;;;;;;;;;;5054800;28;20432;-68
2023/02/21 15:25:20;;;;;;;38.77;20.80;;;;;;;;;;5055123;28;20452;-69
2023/02/21 15:27:55;;;;;;;40.17;23.87;;;;;;;;;;5055354;28;20557;-68
2023/02/21 15:30:24;;;;;;;43.37;24.90;;;;;;;;;;5054701;28;20439;-68
2023/02/21 15:32:57;;;;;;;49.58;27.95;;;;;;;;;;5054368;28;20433;-69
2023/02/21 15:35:27;;;;;;;49.80;27.97;;;;;;;;;;5055149;28;20179;-69
2023/02/21 15:37:56;;;;;;;54.03;30.03;;;;;;;;;;5054486;28;20473;-68
2023/02/21 15:40:26;;;;;;;62.90;30.50;;;;;;;;;;5054362;28;20435;-68
2023/02/21 15:42:54;;;;;;;57.97;33.43;;;;;;;;;;5054757;28;20426;-68
2023/02/21 15:45:23;;;;;;;50.13;27.43;;;;;;;;;;5054519;28;20511;-68
2023/02/21 15:47:50;;;;;;;53.70;28.10;;;;;;;;;;5054968;28;20478;-69
2023/02/21 15:50:24;;;;;;;51.07;26.50;;;;;;;;;;5054588;28;20536;-68
2023/02/21 15:52:52;;;;;;;44.30;25.33;;;;;;;;;;5054536;28;20448;-69
2023/02/21 15:55:31;;;;;;;43.10;24.40;;;;;;;;;;5054732;28;20853;-68
2023/02/21 15:57:59;;;;;;;46.83;25.03;;;;;;;;;;5055025;28;20532;-68
2023/02/21 16:00:27;;;;;;;52.80;27.97;;;;;;;;;;5053888;28;20448;-69
2023/02/21 16:03:09;;;;;;;36.80;24.63;;;;;;;;;;5054122;28;20470;-66
2023/02/21 16:05:36;;;;;;;42.10;24.43;;;;;;;;;;5053530;28;20465;-66
2023/02/21 16:08:04;;;;;;;43.27;25.27;;;;;;;;;;5054598;28;20788;-66
2023/02/21 16:10:33;;;;;;;35.83;22.70;;;;;;;;;;5053976;28;20438;-66
2023/02/21 16:13:01;;;;;;;45.47;23.37;;;;;;;;;;5054362;28;20441;-66
2023/02/21 16:15:29;;;;;;;41.77;25.10;;;;;;;;;;5054183;28;20438;-66
2023/02/21 16:17:57;;;;;;;49.17;26.70;;;;;;;;;;5054384;28;20446;-66
2023/02/21 16:20:27;;;;;;;50.57;26.80;;;;;;;;;;5053805;28;20444;-66
2023/02/21 16:23:09;;;;;;;54.27;28.67;;;;;;;;;;5054027;28;20521;-66
2023/02/21 16:25:54;;;;;;;50.20;28.17;;;;;;;;;;5054002;28;20446;-66
2023/02/21 16:28:21;;;;;;;52.13;29.20;;;;;;;;;;5054187;28;20815;-65
2023/02/21 16:30:49;;;;;;;50.87;28.67;;;;;;;;;;5054241;28;20460;-68
2023/02/21 16:33:16;;;;;;;52.10;28.63;;;;;;;;;;5054138;28;20444;-67
2023/02/21 16:35:44;;;;;;;56.37;30.70;;;;;;;;;;5053701;28;20437;-68
2023/02/21 16:38:14;;;;;;;56.50;31.47;;;;;;;;;;5054000;28;20450;-67
2023/02/21 16:40:42;;;;;;;52.80;30.80;;;;;;;;;;5053880;28;20472;-67
2023/02/21 16:43:16;;;;;;;60.23;31.80;;;;;;;;;;5053469;28;20922;-67
2023/02/21 16:45:43;;;;;;;71.43;35.10;;;;;;;;;;5054139;28;20508;-67
2023/02/21 16:48:12;;;;;;;63.27;35.17;;;;;;;;;;5053647;28;20571;-67
2023/02/21 16:50:40;;;;;;;68.53;36.08;;;;;;;;;;5053304;28;20437;-65